KDUJ/DUJ METAR and TAF weather

Enter ICAO airport designator
Station Type Date Time Source
KDUJ METAR 2019/10/21 22:53 UTC NOAA

KDUJ 212253Z AUTO 12010KT 10SM CLR 15/06 A2992 RMK AO2 SLP136 T01500056


Station Type Date Time Source
KDUJ Decoded METAR 2019/10/21 22:53 UTC NOAA

DU BOIS-JEFFERSON COUNTY, PA, United States (KDUJ) 41-11N 078-53W
Oct 21, 2019 - 06:53 PM EDT / 2019.10.21 2253 UTC
Wind: from the ESE (120 degrees) at 12 MPH (10 KT):0
Visibility: 10 mile(s):0
Sky conditions: clear
Temperature: 59.0 F (15.0 C)
Dew Point: 42.1 F (5.6 C)
Relative Humidity: 53%
Pressure (altimeter): 29.92 in. Hg (1013 hPa)
ob: KDUJ 212253Z AUTO 12010KT 10SM CLR 15/06 A2992 RMK AO2 SLP136 T01500056
cycle: 23

Station Type Date Time Source
KDUJ TAF 2019/10/21 18:24 UTC NOAA

TAF KDUJ 211722Z 2118/2218 13012G20KT P6SM SCT250
FM220900 14012G19KT 4SM -RA OVC015
FM221500 19011G19KT 6SM -RA BR OVC015

Example: see airport list